sensor_id;sensor_type;location;lat;lon;timestamp;pressure;altitude;pressure_sealevel;temperature;humidity
6506;BME280;3286;49.858;8.768;2023-01-30T00:00:01;99799.13;;;1.48;56.79
6506;BME280;3286;49.858;8.768;2023-01-30T00:02:27;99810.78;;;1.41;57.64
6506;BME280;3286;49.858;8.768;2023-01-30T00:04:55;99813.09;;;1.29;58.54
6506;BME280;3286;49.858;8.768;2023-01-30T00:07:22;99806.63;;;1.01;59.84
6506;BME280;3286;49.858;8.768;2023-01-30T00:09:49;99800.09;;;1.81;57.75
6506;BME280;3286;49.858;8.768;2023-01-30T00:12:15;99796.69;;;1.45;58.44
6506;BME280;3286;49.858;8.768;2023-01-30T00:14:42;99788.84;;;2.30;56.93
6506;BME280;3286;49.858;8.768;2023-01-30T00:17:09;99777.13;;;2.21;56.60
6506;BME280;3286;49.858;8.768;2023-01-30T00:19:35;99773.78;;;2.35;56.52
6506;BME280;3286;49.858;8.768;2023-01-30T00:22:03;99774.16;;;1.62;58.13
6506;BME280;3286;49.858;8.768;2023-01-30T00:24:30;99789.16;;;1.56;58.33
6506;BME280;3286;49.858;8.768;2023-01-30T00:26:56;99797.41;;;1.82;57.83
6506;BME280;3286;49.858;8.768;2023-01-30T00:29:23;99786.75;;;2.21;56.14
6506;BME280;3286;49.858;8.768;2023-01-30T00:31:50;99803.50;;;1.99;56.68
6506;BME280;3286;49.858;8.768;2023-01-30T00:34:16;99779.06;;;1.68;57.82
6506;BME280;3286;49.858;8.768;2023-01-30T00:36:43;99757.22;;;2.36;56.26
6506;BME280;3286;49.858;8.768;2023-01-30T00:39:11;99744.19;;;2.04;56.65
6506;BME280;3286;49.858;8.768;2023-01-30T00:41:37;99741.22;;;1.94;57.01
6506;BME280;3286;49.858;8.768;2023-01-30T00:44:22;99726.72;;;1.72;57.80
6506;BME280;3286;49.858;8.768;2023-01-30T00:47:06;99713.09;;;1.34;59.09
6506;BME280;3286;49.858;8.768;2023-01-30T00:49:33;99699.09;;;1.19;60.02
6506;BME280;3286;49.858;8.768;2023-01-30T00:52:01;99682.00;;;1.30;59.41
6506;BME280;3286;49.858;8.768;2023-01-30T00:54:29;99684.56;;;1.14;60.13
6506;BME280;3286;49.858;8.768;2023-01-30T00:56:56;99679.28;;;1.50;59.34
6506;BME280;3286;49.858;8.768;2023-01-30T00:59:23;99692.69;;;1.76;58.66
6506;BME280;3286;49.858;8.768;2023-01-30T01:01:49;99700.94;;;1.50;58.72
6506;BME280;3286;49.858;8.768;2023-01-30T01:04:16;99692.84;;;1.72;58.07
6506;BME280;3286;49.858;8.768;2023-01-30T01:06:42;99680.03;;;2.01;57.09
6506;BME280;3286;49.858;8.768;2023-01-30T01:09:09;99688.38;;;1.58;58.45
6506;BME280;3286;49.858;8.768;2023-01-30T01:11:37;99682.19;;;1.77;58.62
6506;BME280;3286;49.858;8.768;2023-01-30T01:14:05;99659.84;;;2.68;56.37
6506;BME280;3286;49.858;8.768;2023-01-30T01:16:32;99661.94;;;1.82;58.12
6506;BME280;3286;49.858;8.768;2023-01-30T01:18:59;99676.78;;;1.64;58.80
6506;BME280;3286;49.858;8.768;2023-01-30T01:21:26;99666.66;;;1.42;58.85
6506;BME280;3286;49.858;8.768;2023-01-30T01:23:55;99670.41;;;1.36;59.87
6506;BME280;3286;49.858;8.768;2023-01-30T01:26:22;99690.63;;;1.49;59.38
6506;BME280;3286;49.858;8.768;2023-01-30T01:28:53;99705.47;;;0.58;62.27
6506;BME280;3286;49.858;8.768;2023-01-30T01:31:20;99717.00;;;1.25;60.26
6506;BME280;3286;49.858;8.768;2023-01-30T01:33:48;99696.94;;;1.44;59.59
6506;BME280;3286;49.858;8.768;2023-01-30T01:36:14;99701.03;;;1.98;58.70
6506;BME280;3286;49.858;8.768;2023-01-30T01:38:41;99662.34;;;1.25;60.95
6506;BME280;3286;49.858;8.768;2023-01-30T01:41:09;99664.31;;;0.86;63.10
6506;BME280;3286;49.858;8.768;2023-01-30T01:43:37;99660.88;;;1.19;62.37
6506;BME280;3286;49.858;8.768;2023-01-30T01:46:09;99653.03;;;0.85;64.00
6506;BME280;3286;49.858;8.768;2023-01-30T01:48:43;99676.22;;;1.08;63.33
6506;BME280;3286;49.858;8.768;2023-01-30T01:51:15;99661.53;;;1.07;63.17
6506;BME280;3286;49.858;8.768;2023-01-30T01:53:47;99664.66;;;0.96;62.70
6506;BME280;3286;49.858;8.768;2023-01-30T01:56:16;99665.28;;;0.83;63.36
6506;BME280;3286;49.858;8.768;2023-01-30T01:58:47;99662.03;;;1.31;61.96
6506;BME280;3286;49.858;8.768;2023-01-30T02:01:18;99678.75;;;0.92;62.36
6506;BME280;3286;49.858;8.768;2023-01-30T02:03:47;99657.19;;;1.41;61.63
6506;BME280;3286;49.858;8.768;2023-01-30T02:06:15;99658.34;;;1.85;59.59
6506;BME280;3286;49.858;8.768;2023-01-30T02:08:44;99654.72;;;2.03;58.42
6506;BME280;3286;49.858;8.768;2023-01-30T02:11:16;99648.59;;;1.39;60.65
6506;BME280;3286;49.858;8.768;2023-01-30T02:13:46;99636.38;;;0.72;62.37
6506;BME280;3286;49.858;8.768;2023-01-30T02:16:14;99643.63;;;1.00;62.27
6506;BME280;3286;49.858;8.768;2023-01-30T02:18:43;99622.50;;;1.07;62.06
6506;BME280;3286;49.858;8.768;2023-01-30T02:21:32;99628.91;;;1.17;61.08
6506;BME280;3286;49.858;8.768;2023-01-30T02:27:19;99609.16;;;1.63;60.24
6506;BME280;3286;49.858;8.768;2023-01-30T02:30:03;99609.19;;;1.29;60.96
6506;BME280;3286;49.858;8.768;2023-01-30T02:32:40;99615.59;;;1.06;62.31
6506;BME280;3286;49.858;8.768;2023-01-30T02:35:17;99616.72;;;1.51;60.79
6506;BME280;3286;49.858;8.768;2023-01-30T02:38:01;99621.69;;;1.56;60.69
6506;BME280;3286;49.858;8.768;2023-01-30T02:40:38;99629.72;;;0.84;62.03
6506;BME280;3286;49.858;8.768;2023-01-30T02:43:12;99627.94;;;1.36;60.70
6506;BME280;3286;49.858;8.768;2023-01-30T02:45:46;99618.66;;;0.63;62.79
6506;BME280;3286;49.858;8.768;2023-01-30T02:48:22;99621.75;;;0.87;62.52
6506;BME280;3286;49.858;8.768;2023-01-30T02:50:55;99617.75;;;1.31;61.28
6506;BME280;3286;49.858;8.768;2023-01-30T02:53:24;99622.25;;;1.11;61.19
6506;BME280;3286;49.858;8.768;2023-01-30T02:55:51;99620.94;;;1.70;60.15
6506;BME280;3286;49.858;8.768;2023-01-30T02:58:20;99616.72;;;0.84;62.67
6506;BME280;3286;49.858;8.768;2023-01-30T03:01:02;99614.34;;;1.13;62.12
6506;BME280;3286;49.858;8.768;2023-01-30T03:03:52;99616.44;;;1.40;61.20
6506;BME280;3286;49.858;8.768;2023-01-30T03:06:47;99605.69;;;0.79;63.19
6506;BME280;3286;49.858;8.768;2023-01-30T03:09:21;99611.13;;;1.25;62.38
6506;BME280;3286;49.858;8.768;2023-01-30T03:11:59;99609.88;;;0.99;62.79
6506;BME280;3286;49.858;8.768;2023-01-30T03:14:32;99586.22;;;1.85;60.25
6506;BME280;3286;49.858;8.768;2023-01-30T03:17:04;99595.97;;;1.82;60.41
6506;BME280;3286;49.858;8.768;2023-01-30T03:19:33;99604.34;;;1.39;61.50
6506;BME280;3286;49.858;8.768;2023-01-30T03:22:00;99609.13;;;1.30;61.10
6506;BME280;3286;49.858;8.768;2023-01-30T03:24:26;99602.34;;;1.44;60.98
6506;BME280;3286;49.858;8.768;2023-01-30T03:26:56;99606.88;;;1.56;60.83
6506;BME280;3286;49.858;8.768;2023-01-30T03:29:23;99605.72;;;1.62;60.83
6506;BME280;3286;49.858;8.768;2023-01-30T03:31:50;99601.50;;;0.41;63.13
6506;BME280;3286;49.858;8.768;2023-01-30T03:34:17;99598.69;;;1.14;61.84
6506;BME280;3286;49.858;8.768;2023-01-30T03:36:45;99603.84;;;1.48;61.32
6506;BME280;3286;49.858;8.768;2023-01-30T03:39:12;99591.75;;;1.47;60.91
6506;BME280;3286;49.858;8.768;2023-01-30T03:41:39;99591.53;;;1.52;60.88
6506;BME280;3286;49.858;8.768;2023-01-30T03:44:05;99603.31;;;0.92;62.89
6506;BME280;3286;49.858;8.768;2023-01-30T03:46:32;99607.88;;;1.38;61.81
6506;BME280;3286;49.858;8.768;2023-01-30T03:48:59;99607.16;;;1.18;62.41
6506;BME280;3286;49.858;8.768;2023-01-30T03:51:25;99587.91;;;2.02;59.74
6506;BME280;3286;49.858;8.768;2023-01-30T03:53:53;99593.69;;;1.59;60.76
6506;BME280;3286;49.858;8.768;2023-01-30T03:56:20;99577.13;;;1.61;60.55
6506;BME280;3286;49.858;8.768;2023-01-30T03:58:46;99573.00;;;1.40;61.32
6506;BME280;3286;49.858;8.768;2023-01-30T04:01:13;99563.66;;;1.04;63.00
6506;BME280;3286;49.858;8.768;2023-01-30T04:03:40;99552.03;;;1.27;62.46
6506;BME280;3286;49.858;8.768;2023-01-30T04:06:06;99548.75;;;1.24;62.04
6506;BME280;3286;49.858;8.768;2023-01-30T04:08:33;99549.91;;;1.34;62.50
6506;BME280;3286;49.858;8.768;2023-01-30T04:11:01;99540.72;;;1.44;61.55
6506;BME280;3286;49.858;8.768;2023-01-30T04:13:28;99539.94;;;1.42;61.88
6506;BME280;3286;49.858;8.768;2023-01-30T04:16:13;99536.56;;;1.08;63.22
6506;BME280;3286;49.858;8.768;2023-01-30T04:18:40;99539.31;;;0.71;63.92
6506;BME280;3286;49.858;8.768;2023-01-30T04:21:06;99534.97;;;0.72;64.34
6506;BME280;3286;49.858;8.768;2023-01-30T04:23:33;99529.75;;;1.22;63.04
6506;BME280;3286;49.858;8.768;2023-01-30T04:26:01;99529.34;;;1.13;63.09
6506;BME280;3286;49.858;8.768;2023-01-30T04:28:28;99535.97;;;1.19;63.13
6506;BME280;3286;49.858;8.768;2023-01-30T04:30:54;99539.41;;;0.70;64.45
6506;BME280;3286;49.858;8.768;2023-01-30T04:33:21;99521.63;;;1.44;63.02
6506;BME280;3286;49.858;8.768;2023-01-30T04:35:51;99516.53;;;0.93;63.96
6506;BME280;3286;49.858;8.768;2023-01-30T04:38:18;99503.75;;;1.22;63.54
6506;BME280;3286;49.858;8.768;2023-01-30T04:40:47;99512.91;;;0.79;64.43
6506;BME280;3286;49.858;8.768;2023-01-30T04:43:15;99512.47;;;1.37;62.86
6506;BME280;3286;49.858;8.768;2023-01-30T04:45:42;99509.72;;;1.56;61.93
6506;BME280;3286;49.858;8.768;2023-01-30T04:48:08;99518.84;;;1.15;63.15
6506;BME280;3286;49.858;8.768;2023-01-30T04:50:35;99502.97;;;1.20;63.37
6506;BME280;3286;49.858;8.768;2023-01-30T04:53:02;99500.97;;;1.25;63.34
6506;BME280;3286;49.858;8.768;2023-01-30T04:55:29;99486.03;;;1.28;63.00
6506;BME280;3286;49.858;8.768;2023-01-30T04:57:55;99466.25;;;1.56;61.68
6506;BME280;3286;49.858;8.768;2023-01-30T05:00:24;99454.88;;;1.73;60.88
6506;BME280;3286;49.858;8.768;2023-01-30T05:02:51;99457.13;;;1.80;60.74
6506;BME280;3286;49.858;8.768;2023-01-30T05:05:20;99449.59;;;1.12;62.94
6506;BME280;3286;49.858;8.768;2023-01-30T05:07:46;99438.16;;;0.99;63.33
6506;BME280;3286;49.858;8.768;2023-01-30T05:10:13;99444.56;;;1.09;63.58
6506;BME280;3286;49.858;8.768;2023-01-30T05:12:40;99443.88;;;1.06;63.60
6506;BME280;3286;49.858;8.768;2023-01-30T05:15:07;99442.38;;;1.01;63.18
6506;BME280;3286;49.858;8.768;2023-01-30T05:17:36;99441.09;;;1.41;62.15
6506;BME280;3286;49.858;8.768;2023-01-30T05:20:03;99440.19;;;1.72;61.06
6506;BME280;3286;49.858;8.768;2023-01-30T05:22:30;99436.75;;;1.25;63.29
6506;BME280;3286;49.858;8.768;2023-01-30T05:24:57;99432.22;;;1.13;62.84
6506;BME280;3286;49.858;8.768;2023-01-30T05:27:24;99438.81;;;0.70;64.73
6506;BME280;3286;49.858;8.768;2023-01-30T05:29:50;99435.09;;;1.08;63.67
6506;BME280;3286;49.858;8.768;2023-01-30T05:32:18;99440.19;;;0.94;63.86
6506;BME280;3286;49.858;8.768;2023-01-30T05:34:47;99449.59;;;0.96;64.04
6506;BME280;3286;49.858;8.768;2023-01-30T05:37:14;99443.81;;;0.91;64.34
6506;BME280;3286;49.858;8.768;2023-01-30T05:39:40;99453.50;;;0.88;64.52
6506;BME280;3286;49.858;8.768;2023-01-30T05:42:07;99452.53;;;1.06;63.77
6506;BME280;3286;49.858;8.768;2023-01-30T05:44:34;99448.66;;;0.97;64.06
6506;BME280;3286;49.858;8.768;2023-01-30T05:47:00;99447.84;;;0.63;65.09
6506;BME280;3286;49.858;8.768;2023-01-30T05:49:27;99439.06;;;0.66;65.49
6506;BME280;3286;49.858;8.768;2023-01-30T05:51:55;99425.66;;;1.06;64.71
6506;BME280;3286;49.858;8.768;2023-01-30T05:54:22;99413.34;;;1.25;63.45
6506;BME280;3286;49.858;8.768;2023-01-30T05:56:49;99416.94;;;1.23;63.55
6506;BME280;3286;49.858;8.768;2023-01-30T05:59:16;99403.75;;;0.62;65.63
6506;BME280;3286;49.858;8.768;2023-01-30T06:01:42;99394.44;;;0.90;65.21
6506;BME280;3286;49.858;8.768;2023-01-30T06:04:09;99384.03;;;1.06;65.03
6506;BME280;3286;49.858;8.768;2023-01-30T06:06:36;99378.84;;;0.90;65.25
6506;BME280;3286;49.858;8.768;2023-01-30T06:09:04;99390.56;;;0.49;66.21
6506;BME280;3286;49.858;8.768;2023-01-30T06:11:30;99393.63;;;1.05;64.70
6506;BME280;3286;49.858;8.768;2023-01-30T06:13:57;99388.81;;;0.81;65.31
6506;BME280;3286;49.858;8.768;2023-01-30T06:16:24;99392.00;;;0.86;64.77
6506;BME280;3286;49.858;8.768;2023-01-30T06:18:50;99400.81;;;0.68;66.23
6506;BME280;3286;49.858;8.768;2023-01-30T06:21:17;99389.50;;;0.85;65.46
6506;BME280;3286;49.858;8.768;2023-01-30T06:23:43;99394.03;;;1.13;64.83
6506;BME280;3286;49.858;8.768;2023-01-30T06:26:12;99394.69;;;0.69;65.42
6506;BME280;3286;49.858;8.768;2023-01-30T06:28:38;99406.00;;;1.00;64.89
6506;BME280;3286;49.858;8.768;2023-01-30T06:31:06;99402.06;;;1.25;64.48
6506;BME280;3286;49.858;8.768;2023-01-30T06:33:33;99399.13;;;1.15;64.46
6506;BME280;3286;49.858;8.768;2023-01-30T06:35:59;99401.44;;;1.05;64.67
6506;BME280;3286;49.858;8.768;2023-01-30T06:38:26;99404.06;;;1.36;64.03
6506;BME280;3286;49.858;8.768;2023-01-30T06:40:52;99410.88;;;1.99;61.48
6506;BME280;3286;49.858;8.768;2023-01-30T06:43:20;99411.72;;;1.07;64.42
6506;BME280;3286;49.858;8.768;2023-01-30T06:45:47;99419.81;;;1.02;64.92
6506;BME280;3286;49.858;8.768;2023-01-30T06:48:14;99420.34;;;1.39;63.59
6506;BME280;3286;49.858;8.768;2023-01-30T06:50:40;99417.44;;;1.29;64.33
6506;BME280;3286;49.858;8.768;2023-01-30T06:53:07;99412.69;;;1.52;64.30
6506;BME280;3286;49.858;8.768;2023-01-30T06:55:34;99387.38;;;1.08;65.71
6506;BME280;3286;49.858;8.768;2023-01-30T06:58:02;99394.41;;;1.68;63.48
6506;BME280;3286;49.858;8.768;2023-01-30T07:00:31;99406.56;;;1.53;64.75
6506;BME280;3286;49.858;8.768;2023-01-30T07:02:58;99414.28;;;1.55;64.55
6506;BME280;3286;49.858;8.768;2023-01-30T07:05:25;99412.59;;;1.23;65.61
6506;BME280;3286;49.858;8.768;2023-01-30T07:07:53;99407.84;;;1.46;64.67
6506;BME280;3286;49.858;8.768;2023-01-30T07:10:19;99421.16;;;1.25;64.87
6506;BME280;3286;49.858;8.768;2023-01-30T07:12:46;99414.28;;;1.55;64.58
6506;BME280;3286;49.858;8.768;2023-01-30T07:15:13;99399.56;;;1.70;63.86
6506;BME280;3286;49.858;8.768;2023-01-30T07:17:41;99398.38;;;0.97;66.15
6506;BME280;3286;49.858;8.768;2023-01-30T07:20:09;99414.50;;;1.20;66.06
6506;BME280;3286;49.858;8.768;2023-01-30T07:22:36;99420.53;;;1.20;65.77
6506;BME280;3286;49.858;8.768;2023-01-30T07:25:03;99417.88;;;1.06;65.90
6506;BME280;3286;49.858;8.768;2023-01-30T07:27:30;99428.94;;;1.72;65.01
6506;BME280;3286;49.858;8.768;2023-01-30T07:29:57;99444.09;;;1.49;65.27
6506;BME280;3286;49.858;8.768;2023-01-30T07:32:24;99464.00;;;1.66;64.61
6506;BME280;3286;49.858;8.768;2023-01-30T07:34:52;99460.25;;;1.40;66.04
6506;BME280;3286;49.858;8.768;2023-01-30T07:37:19;99430.44;;;1.29;66.06
6506;BME280;3286;49.858;8.768;2023-01-30T07:39:46;99432.75;;;1.50;66.21
6506;BME280;3286;49.858;8.768;2023-01-30T07:42:12;99439.94;;;1.77;65.23
6506;BME280;3286;49.858;8.768;2023-01-30T07:44:39;99442.91;;;1.71;65.50
6506;BME280;3286;49.858;8.768;2023-01-30T07:47:05;99437.19;;;1.95;64.14
6506;BME280;3286;49.858;8.768;2023-01-30T07:49:32;99433.47;;;1.68;65.31
6506;BME280;3286;49.858;8.768;2023-01-30T07:52:00;99431.09;;;1.49;66.20
6506;BME280;3286;49.858;8.768;2023-01-30T07:54:27;99465.06;;;1.78;65.61
6506;BME280;3286;49.858;8.768;2023-01-30T07:56:54;99462.44;;;2.09;65.03
6506;BME280;3286;49.858;8.768;2023-01-30T07:59:20;99466.00;;;1.61;65.95
6506;BME280;3286;49.858;8.768;2023-01-30T08:01:47;99457.97;;;1.66;65.81
6506;BME280;3286;49.858;8.768;2023-01-30T08:04:13;99456.31;;;1.17;67.31
6506;BME280;3286;49.858;8.768;2023-01-30T08:06:40;99461.94;;;2.33;64.52
6506;BME280;3286;49.858;8.768;2023-01-30T08:09:08;99455.19;;;1.69;65.56
6506;BME280;3286;49.858;8.768;2023-01-30T08:11:35;99462.28;;;1.81;65.64
6506;BME280;3286;49.858;8.768;2023-01-30T08:14:01;99460.25;;;1.40;66.13
6506;BME280;3286;49.858;8.768;2023-01-30T08:16:28;99457.81;;;1.83;66.38
6506;BME280;3286;49.858;8.768;2023-01-30T08:18:56;99433.16;;;1.58;66.60
6506;BME280;3286;49.858;8.768;2023-01-30T08:21:23;99432.16;;;1.61;66.01
6506;BME280;3286;49.858;8.768;2023-01-30T08:23:50;99414.25;;;1.71;65.75
6506;BME280;3286;49.858;8.768;2023-01-30T08:26:18;99434.16;;;1.25;67.76
6506;BME280;3286;49.858;8.768;2023-01-30T08:28:44;99444.63;;;1.08;68.40
6506;BME280;3286;49.858;8.768;2023-01-30T08:31:13;99426.47;;;1.38;67.54
6506;BME280;3286;49.858;8.768;2023-01-30T08:33:40;99432.38;;;1.26;67.83
6506;BME280;3286;49.858;8.768;2023-01-30T08:36:07;99432.38;;;1.26;68.52
6506;BME280;3286;49.858;8.768;2023-01-30T08:38:34;99423.16;;;1.67;66.53
6506;BME280;3286;49.858;8.768;2023-01-30T08:41:03;99429.22;;;1.51;67.90
6506;BME280;3286;49.858;8.768;2023-01-30T08:43:32;99441.97;;;1.72;66.56
6506;BME280;3286;49.858;8.768;2023-01-30T08:45:59;99439.34;;;1.88;66.53
6506;BME280;3286;49.858;8.768;2023-01-30T08:48:25;99437.97;;;1.50;67.83
6506;BME280;3286;49.858;8.768;2023-01-30T08:50:52;99453.03;;;1.29;68.08
6506;BME280;3286;49.858;8.768;2023-01-30T08:53:20;99437.25;;;2.09;66.03
6506;BME280;3286;49.858;8.768;2023-01-30T08:55:48;99432.41;;;1.56;66.92
6506;BME280;3286;49.858;8.768;2023-01-30T08:58:15;99427.03;;;1.59;67.33
6506;BME280;3286;49.858;8.768;2023-01-30T09:00:43;99418.09;;;1.33;68.24
6506;BME280;3286;49.858;8.768;2023-01-30T09:03:12;99404.28;;;1.78;67.23
6506;BME280;3286;49.858;8.768;2023-01-30T09:05:39;99409.44;;;1.94;66.31
6506;BME280;3286;49.858;8.768;2023-01-30T09:08:05;99410.69;;;2.02;66.52
6506;BME280;3286;49.858;8.768;2023-01-30T09:10:32;99396.56;;;2.36;64.82
6506;BME280;3286;49.858;8.768;2023-01-30T09:12:59;99403.44;;;2.08;65.17
6506;BME280;3286;49.858;8.768;2023-01-30T09:15:26;99392.88;;;1.95;66.22
6506;BME280;3286;49.858;8.768;2023-01-30T09:17:53;99393.50;;;1.69;67.28
6506;BME280;3286;49.858;8.768;2023-01-30T09:20:20;99412.09;;;1.78;67.08
6506;BME280;3286;49.858;8.768;2023-01-30T09:22:47;99416.44;;;1.63;67.35
6506;BME280;3286;49.858;8.768;2023-01-30T09:25:14;99409.06;;;1.85;66.98
6506;BME280;3286;49.858;8.768;2023-01-30T09:27:41;99406.50;;;2.43;64.64
6506;BME280;3286;49.858;8.768;2023-01-30T09:30:10;99403.25;;;1.96;65.73
6506;BME280;3286;49.858;8.768;2023-01-30T09:32:37;99399.94;;;1.78;66.75
6506;BME280;3286;49.858;8.768;2023-01-30T09:35:06;99409.66;;;1.60;68.33
6506;BME280;3286;49.858;8.768;2023-01-30T09:37:33;99406.31;;;1.58;68.84
6506;BME280;3286;49.858;8.768;2023-01-30T09:39:59;99393.63;;;1.97;67.75
6506;BME280;3286;49.858;8.768;2023-01-30T09:42:41;99384.19;;;1.80;68.24
6506;BME280;3286;49.858;8.768;2023-01-30T09:45:36;99376.88;;;1.86;67.62
6506;BME280;3286;49.858;8.768;2023-01-30T09:48:17;99384.13;;;1.81;68.30
6506;BME280;3286;49.858;8.768;2023-01-30T09:51:07;99392.81;;;1.96;67.38
6506;BME280;3286;49.858;8.768;2023-01-30T09:53:44;99392.75;;;2.41;66.33
6506;BME280;3286;49.858;8.768;2023-01-30T09:56:15;99405.13;;;2.38;66.58
6506;BME280;3286;49.858;8.768;2023-01-30T09:58:45;99392.44;;;2.60;64.72
6506;BME280;3286;49.858;8.768;2023-01-30T10:01:19;99407.53;;;1.97;66.92
6506;BME280;3286;49.858;8.768;2023-01-30T10:03:57;99407.06;;;2.05;66.72
6506;BME280;3286;49.858;8.768;2023-01-30T10:06:29;99399.44;;;2.16;66.22
6506;BME280;3286;49.858;8.768;2023-01-30T10:09:02;99394.69;;;2.23;66.53
6506;BME280;3286;49.858;8.768;2023-01-30T10:11:45;99386.41;;;2.31;65.71
6506;BME280;3286;49.858;8.768;2023-01-30T10:14:26;99377.00;;;2.14;66.40
6506;BME280;3286;49.858;8.768;2023-01-30T10:17:06;99364.25;;;2.38;66.29
6506;BME280;3286;49.858;8.768;2023-01-30T10:19:46;99358.56;;;2.02;66.94
6506;BME280;3286;49.858;8.768;2023-01-30T10:22:27;99357.88;;;1.70;68.42
6506;BME280;3286;49.858;8.768;2023-01-30T10:25:06;99354.00;;;1.92;67.43
6506;BME280;3286;49.858;8.768;2023-01-30T10:27:43;99351.03;;;2.12;66.41
6506;BME280;3286;49.858;8.768;2023-01-30T10:30:15;99351.22;;;2.24;66.49
6506;BME280;3286;49.858;8.768;2023-01-30T10:32:44;99357.16;;;2.40;65.94
6506;BME280;3286;49.858;8.768;2023-01-30T10:35:16;99350.38;;;2.09;67.37
6506;BME280;3286;49.858;8.768;2023-01-30T10:37:51;99331.31;;;2.08;67.30
6506;BME280;3286;49.858;8.768;2023-01-30T10:40:25;99340.25;;;2.19;67.84
6506;BME280;3286;49.858;8.768;2023-01-30T10:43:02;99343.47;;;2.66;66.61
6506;BME280;3286;49.858;8.768;2023-01-30T10:45:35;99330.53;;;2.50;67.13
6506;BME280;3286;49.858;8.768;2023-01-30T10:48:17;99326.69;;;2.97;65.19
6506;BME280;3286;49.858;8.768;2023-01-30T10:50:49;99310.78;;;2.60;66.58
6506;BME280;3286;49.858;8.768;2023-01-30T10:53:22;99307.34;;;3.14;65.24
6506;BME280;3286;49.858;8.768;2023-01-30T10:55:55;99319.84;;;2.40;67.02
6506;BME280;3286;49.858;8.768;2023-01-30T10:58:30;99318.22;;;2.66;65.86
6506;BME280;3286;49.858;8.768;2023-01-30T11:01:02;99311.97;;;2.69;65.72
6506;BME280;3286;49.858;8.768;2023-01-30T11:03:35;99331.53;;;3.03;64.78
6506;BME280;3286;49.858;8.768;2023-01-30T11:06:05;99331.66;;;2.87;65.69
6506;BME280;3286;49.858;8.768;2023-01-30T11:08:35;99319.22;;;2.78;65.56
6506;BME280;3286;49.858;8.768;2023-01-30T11:11:22;99335.34;;;2.70;65.25
6506;BME280;3286;49.858;8.768;2023-01-30T11:14:00;99329.69;;;2.91;65.88
6506;BME280;3286;49.858;8.768;2023-01-30T11:16:27;99328.97;;;2.89;65.47
6506;BME280;3286;49.858;8.768;2023-01-30T11:18:54;99341.31;;;3.00;64.92
6506;BME280;3286;49.858;8.768;2023-01-30T11:21:25;99341.69;;;2.66;66.63
6506;BME280;3286;49.858;8.768;2023-01-30T11:23:54;99347.00;;;2.50;67.67
6506;BME280;3286;49.858;8.768;2023-01-30T11:26:22;99334.28;;;3.68;64.76
6506;BME280;3286;49.858;8.768;2023-01-30T11:28:50;99343.31;;;3.37;66.31
6506;BME280;3286;49.858;8.768;2023-01-30T11:31:19;99346.97;;;3.07;67.55
6506;BME280;3286;49.858;8.768;2023-01-30T11:33:58;99341.47;;;3.11;66.38
6506;BME280;3286;49.858;8.768;2023-01-30T11:36:27;99338.59;;;3.01;66.79
6506;BME280;3286;49.858;8.768;2023-01-30T11:38:58;99343.22;;;3.11;67.38
6506;BME280;3286;49.858;8.768;2023-01-30T11:41:25;99335.63;;;3.87;64.91
6506;BME280;3286;49.858;8.768;2023-01-30T11:43:59;99342.63;;;3.20;67.95
6506;BME280;3286;49.858;8.768;2023-01-30T11:46:30;99356.56;;;4.26;64.14
6506;BME280;3286;49.858;8.768;2023-01-30T11:49:00;99364.34;;;3.48;65.72
6506;BME280;3286;49.858;8.768;2023-01-30T11:51:28;99362.84;;;3.84;65.08
6506;BME280;3286;49.858;8.768;2023-01-30T11:53:59;99349.09;;;3.55;64.87
6506;BME280;3286;49.858;8.768;2023-01-30T11:56:31;99352.28;;;3.73;65.77
6506;BME280;3286;49.858;8.768;2023-01-30T11:59:01;99370.03;;;3.68;64.72
6506;BME280;3286;49.858;8.768;2023-01-30T12:01:30;99373.50;;;4.46;62.59
6506;BME280;3286;49.858;8.768;2023-01-30T12:03:58;99373.91;;;3.35;64.44
6506;BME280;3286;49.858;8.768;2023-01-30T12:06:31;99398.34;;;2.50;68.47
6506;BME280;3286;49.858;8.768;2023-01-30T12:08:59;99385.31;;;3.33;65.56
6506;BME280;3286;49.858;8.768;2023-01-30T12:11:30;99390.00;;;3.69;65.35
6506;BME280;3286;49.858;8.768;2023-01-30T12:14:08;99382.56;;;3.75;65.18
6506;BME280;3286;49.858;8.768;2023-01-30T12:16:49;99380.66;;;3.65;65.26
6506;BME280;3286;49.858;8.768;2023-01-30T12:19:29;99366.28;;;4.11;63.42
6506;BME280;3286;49.858;8.768;2023-01-30T12:22:05;99367.34;;;3.95;63.46
6506;BME280;3286;49.858;8.768;2023-01-30T12:24:41;99359.75;;;4.55;62.36
6506;BME280;3286;49.858;8.768;2023-01-30T12:27:14;99380.72;;;4.16;63.75
6506;BME280;3286;49.858;8.768;2023-01-30T12:29:53;99370.34;;;4.41;61.96
6506;BME280;3286;49.858;8.768;2023-01-30T12:32:26;99361.94;;;4.99;61.17
6506;BME280;3286;49.858;8.768;2023-01-30T12:34:53;99353.56;;;4.69;62.11
6506;BME280;3286;49.858;8.768;2023-01-30T12:37:39;99346.72;;;4.79;62.29
6506;BME280;3286;49.858;8.768;2023-01-30T12:40:19;99355.75;;;5.00;61.18
6506;BME280;3286;49.858;8.768;2023-01-30T12:43:10;99346.44;;;4.96;61.29
6506;BME280;3286;49.858;8.768;2023-01-30T12:45:45;99342.09;;;4.83;61.21
6506;BME280;3286;49.858;8.768;2023-01-30T12:48:33;99338.25;;;4.76;61.30
6506;BME280;3286;49.858;8.768;2023-01-30T12:51:11;99337.13;;;4.67;62.26
6506;BME280;3286;49.858;8.768;2023-01-30T12:53:51;99347.63;;;5.16;59.88
6506;BME280;3286;49.858;8.768;2023-01-30T12:56:49;99345.84;;;5.16;60.91
6506;BME280;3286;49.858;8.768;2023-01-30T12:59:21;99351.31;;;5.13;60.64
6506;BME280;3286;49.858;8.768;2023-01-30T13:02:07;99360.47;;;4.57;62.83
6506;BME280;3286;49.858;8.768;2023-01-30T13:04:44;99354.66;;;4.91;61.60
6506;BME280;3286;49.858;8.768;2023-01-30T13:07:23;99346.88;;;4.52;62.71
6506;BME280;3286;49.858;8.768;2023-01-30T13:10:04;99350.91;;;4.82;62.02
6506;BME280;3286;49.858;8.768;2023-01-30T13:12:39;99355.53;;;5.03;62.17
6506;BME280;3286;49.858;8.768;2023-01-30T13:15:17;99358.09;;;5.16;61.09
6506;BME280;3286;49.858;8.768;2023-01-30T13:17:53;99352.84;;;5.76;59.19
6506;BME280;3286;49.858;8.768;2023-01-30T13:20:41;99349.50;;;5.74;59.10
6506;BME280;3286;49.858;8.768;2023-01-30T13:23:16;99369.38;;;5.65;59.79
6506;BME280;3286;49.858;8.768;2023-01-30T13:25:50;99368.94;;;5.11;60.36
6506;BME280;3286;49.858;8.768;2023-01-30T13:28:23;99360.38;;;5.45;60.34
6506;BME280;3286;49.858;8.768;2023-01-30T13:30:51;99359.84;;;5.64;59.66
6506;BME280;3286;49.858;8.768;2023-01-30T13:33:21;99366.09;;;5.50;59.62
6506;BME280;3286;49.858;8.768;2023-01-30T13:35:53;99362.81;;;5.71;59.68
6506;BME280;3286;49.858;8.768;2023-01-30T13:38:24;99364.28;;;4.90;61.88
6506;BME280;3286;49.858;8.768;2023-01-30T13:40:54;99371.69;;;4.97;61.18
6506;BME280;3286;49.858;8.768;2023-01-30T13:43:27;99372.28;;;5.13;62.25
6506;BME280;3286;49.858;8.768;2023-01-30T13:45:57;99376.16;;;5.07;62.19
6506;BME280;3286;49.858;8.768;2023-01-30T13:48:38;99379.13;;;5.63;60.94
6506;BME280;3286;49.858;8.768;2023-01-30T13:51:38;99374.72;;;5.28;60.79